sensor_id;sensor_type;location;lat;lon;timestamp;P1;durP1;ratioP1;P2;durP2;ratioP2
31095;SDS011;17749;51.962;8.560;2023-03-14T06:01:12;2.35;;;0.90;;
31095;SDS011;17749;51.962;8.560;2023-03-14T06:03:55;6.30;;;0.80;;
31095;SDS011;17749;51.962;8.560;2023-03-14T06:06:22;2.58;;;0.80;;
31095;SDS011;17749;51.962;8.560;2023-03-14T06:08:53;2.78;;;0.75;;
31095;SDS011;17749;51.962;8.560;2023-03-14T06:11:20;1.20;;;0.50;;
31095;SDS011;17749;51.962;8.560;2023-03-14T06:13:48;1.67;;;1.08;;
31095;SDS011;17749;51.962;8.560;2023-03-14T06:16:14;4.13;;;0.55;;
31095;SDS011;17749;51.962;8.560;2023-03-14T06:18:42;1.05;;;0.40;;
31095;SDS011;17749;51.962;8.560;2023-03-14T06:21:11;2.40;;;0.60;;
31095;SDS011;17749;51.962;8.560;2023-03-14T06:23:38;2.75;;;0.70;;
31095;SDS011;17749;51.962;8.560;2023-03-14T06:26:06;3.17;;;0.55;;
31095;SDS011;17749;51.962;8.560;2023-03-14T06:28:33;1.20;;;0.40;;
31095;SDS011;17749;51.962;8.560;2023-03-14T06:31:03;2.78;;;0.80;;
31095;SDS011;17749;51.962;8.560;2023-03-14T06:33:37;2.03;;;0.70;;
31095;SDS011;17749;51.962;8.560;2023-03-14T06:36:06;4.10;;;0.73;;
31095;SDS011;17749;51.962;8.560;2023-03-14T06:38:34;2.60;;;0.50;;
31095;SDS011;17749;51.962;8.560;2023-03-14T06:41:03;2.08;;;0.35;;
31095;SDS011;17749;51.962;8.560;2023-03-14T06:43:36;2.00;;;0.32;;
31095;SDS011;17749;51.962;8.560;2023-03-14T06:46:05;1.15;;;0.50;;
31095;SDS011;17749;51.962;8.560;2023-03-14T06:48:34;0.50;;;0.45;;
31095;SDS011;17749;51.962;8.560;2023-03-14T06:51:01;1.25;;;0.32;;
31095;SDS011;17749;51.962;8.560;2023-03-14T06:53:28;0.55;;;0.32;;
31095;SDS011;17749;51.962;8.560;2023-03-14T06:55:58;1.20;;;0.90;;
31095;SDS011;17749;51.962;8.560;2023-03-14T06:58:27;2.35;;;0.60;;
31095;SDS011;17749;51.962;8.560;2023-03-14T07:00:54;4.15;;;0.90;;
31095;SDS011;17749;51.962;8.560;2023-03-14T07:03:27;1.48;;;0.50;;
31095;SDS011;17749;51.962;8.560;2023-03-14T07:05:55;1.75;;;0.40;;
31095;SDS011;17749;51.962;8.560;2023-03-14T07:08:22;1.67;;;0.60;;
31095;SDS011;17749;51.962;8.560;2023-03-14T07:10:49;0.98;;;0.68;;
31095;SDS011;17749;51.962;8.560;2023-03-14T07:13:17;1.23;;;0.50;;
31095;SDS011;17749;51.962;8.560;2023-03-14T07:15:53;2.25;;;1.20;;
31095;SDS011;17749;51.962;8.560;2023-03-14T07:18:20;1.38;;;0.75;;
31095;SDS011;17749;51.962;8.560;2023-03-14T07:20:47;4.13;;;0.52;;
31095;SDS011;17749;51.962;8.560;2023-03-14T07:23:17;3.47;;;1.10;;
31095;SDS011;17749;51.962;8.560;2023-03-14T07:25:47;7.70;;;0.90;;
31095;SDS011;17749;51.962;8.560;2023-03-14T07:28:17;1.23;;;0.68;;
31095;SDS011;17749;51.962;8.560;2023-03-14T07:30:46;2.60;;;0.60;;
31095;SDS011;17749;51.962;8.560;2023-03-14T07:33:19;2.38;;;0.70;;
31095;SDS011;17749;51.962;8.560;2023-03-14T07:35:47;4.05;;;0.70;;
31095;SDS011;17749;51.962;8.560;2023-03-14T07:38:15;2.00;;;0.60;;
31095;SDS011;17749;51.962;8.560;2023-03-14T07:41:06;3.15;;;0.68;;
31095;SDS011;17749;51.962;8.560;2023-03-14T07:43:36;4.90;;;0.90;;
31095;SDS011;17749;51.962;8.560;2023-03-14T07:46:03;4.60;;;0.90;;
31095;SDS011;17749;51.962;8.560;2023-03-14T07:48:31;3.25;;;1.02;;
31095;SDS011;17749;51.962;8.560;2023-03-14T07:50:58;4.05;;;1.02;;
31095;SDS011;17749;51.962;8.560;2023-03-14T07:53:25;6.05;;;1.15;;
31095;SDS011;17749;51.962;8.560;2023-03-14T07:55:52;4.03;;;1.33;;
31095;SDS011;17749;51.962;8.560;2023-03-14T07:58:20;2.53;;;1.08;;
31095;SDS011;17749;51.962;8.560;2023-03-14T08:00:51;3.42;;;0.93;;
31095;SDS011;17749;51.962;8.560;2023-03-14T08:03:18;1.67;;;0.85;;
31095;SDS011;17749;51.962;8.560;2023-03-14T08:05:49;3.00;;;1.35;;
31095;SDS011;17749;51.962;8.560;2023-03-14T08:08:17;3.33;;;1.13;;
31095;SDS011;17749;51.962;8.560;2023-03-14T08:10:45;4.03;;;1.48;;
31095;SDS011;17749;51.962;8.560;2023-03-14T08:13:13;3.17;;;1.40;;
31095;SDS011;17749;51.962;8.560;2023-03-14T08:15:40;5.68;;;1.38;;
31095;SDS011;17749;51.962;8.560;2023-03-14T08:18:07;1.88;;;1.30;;
31095;SDS011;17749;51.962;8.560;2023-03-14T08:20:36;1.60;;;1.25;;
31095;SDS011;17749;51.962;8.560;2023-03-14T08:23:03;3.88;;;1.10;;
31095;SDS011;17749;51.962;8.560;2023-03-14T08:25:30;8.00;;;1.83;;
31095;SDS011;17749;51.962;8.560;2023-03-14T08:27:58;6.20;;;1.48;;
31095;SDS011;17749;51.962;8.560;2023-03-14T08:30:25;2.90;;;1.52;;
31095;SDS011;17749;51.962;8.560;2023-03-14T08:32:52;3.00;;;1.38;;
31095;SDS011;17749;51.962;8.560;2023-03-14T08:35:19;2.97;;;1.35;;
31095;SDS011;17749;51.962;8.560;2023-03-14T08:37:47;3.00;;;1.40;;
31095;SDS011;17749;51.962;8.560;2023-03-14T08:40:14;4.15;;;1.50;;
31095;SDS011;17749;51.962;8.560;2023-03-14T08:42:43;3.50;;;1.23;;
31095;SDS011;17749;51.962;8.560;2023-03-14T08:45:11;2.70;;;1.27;;
31095;SDS011;17749;51.962;8.560;2023-03-14T08:47:40;2.97;;;1.20;;
31095;SDS011;17749;51.962;8.560;2023-03-14T08:50:07;2.53;;;1.23;;
31095;SDS011;17749;51.962;8.560;2023-03-14T08:52:39;2.10;;;1.10;;
31095;SDS011;17749;51.962;8.560;2023-03-14T08:55:07;1.60;;;1.25;;
31095;SDS011;17749;51.962;8.560;2023-03-14T08:57:35;4.80;;;1.20;;
31095;SDS011;17749;51.962;8.560;2023-03-14T09:00:03;2.53;;;1.02;;
31095;SDS011;17749;51.962;8.560;2023-03-14T09:02:41;4.47;;;1.90;;
31095;SDS011;17749;51.962;8.560;2023-03-14T09:05:10;2.85;;;1.40;;
31095;SDS011;17749;51.962;8.560;2023-03-14T09:07:38;4.90;;;1.33;;
31095;SDS011;17749;51.962;8.560;2023-03-14T09:10:05;2.33;;;1.52;;
31095;SDS011;17749;51.962;8.560;2023-03-14T09:12:34;3.55;;;1.20;;
31095;SDS011;17749;51.962;8.560;2023-03-14T09:15:00;3.15;;;1.50;;
31095;SDS011;17749;51.962;8.560;2023-03-14T09:17:28;2.08;;;1.20;;
31095;SDS011;17749;51.962;8.560;2023-03-14T09:19:55;2.00;;;0.90;;
31095;SDS011;17749;51.962;8.560;2023-03-14T09:22:25;4.32;;;1.17;;
31095;SDS011;17749;51.962;8.560;2023-03-14T09:24:52;1.38;;;1.08;;
31095;SDS011;17749;51.962;8.560;2023-03-14T09:27:19;1.48;;;1.13;;
31095;SDS011;17749;51.962;8.560;2023-03-14T09:29:46;2.10;;;1.20;;
31095;SDS011;17749;51.962;8.560;2023-03-14T09:32:13;2.45;;;1.40;;
31095;SDS011;17749;51.962;8.560;2023-03-14T09:34:40;1.48;;;1.20;;
31095;SDS011;17749;51.962;8.560;2023-03-14T09:37:07;2.33;;;1.30;;
31095;SDS011;17749;51.962;8.560;2023-03-14T09:39:43;1.70;;;1.10;;
31095;SDS011;17749;51.962;8.560;2023-03-14T09:42:14;1.38;;;1.02;;
31095;SDS011;17749;51.962;8.560;2023-03-14T09:44:56;1.40;;;1.20;;
31095;SDS011;17749;51.962;8.560;2023-03-14T09:47:27;1.60;;;0.73;;
31095;SDS011;17749;51.962;8.560;2023-03-14T09:49:56;2.00;;;1.17;;
31095;SDS011;17749;51.962;8.560;2023-03-14T09:52:30;2.78;;;1.00;;
31095;SDS011;17749;51.962;8.560;2023-03-14T09:55:17;2.28;;;1.13;;
31095;SDS011;17749;51.962;8.560;2023-03-14T09:57:48;1.60;;;1.30;;
31095;SDS011;17749;51.962;8.560;2023-03-14T10:00:19;1.27;;;1.00;;
31095;SDS011;17749;51.962;8.560;2023-03-14T10:02:55;4.70;;;1.58;;
31095;SDS011;17749;51.962;8.560;2023-03-14T10:05:28;3.78;;;1.75;;
31095;SDS011;17749;51.962;8.560;2023-03-14T10:07:56;2.67;;;1.40;;
31095;SDS011;17749;51.962;8.560;2023-03-14T10:10:24;3.45;;;1.85;;
31095;SDS011;17749;51.962;8.560;2023-03-14T10:12:59;6.63;;;1.92;;
31095;SDS011;17749;51.962;8.560;2023-03-14T10:15:30;2.45;;;1.83;;
31095;SDS011;17749;51.962;8.560;2023-03-14T10:18:00;2.08;;;1.88;;
31095;SDS011;17749;51.962;8.560;2023-03-14T10:20:32;3.10;;;1.75;;
31095;SDS011;17749;51.962;8.560;2023-03-14T10:25:42;3.95;;;2.60;;
31095;SDS011;17749;51.962;8.560;2023-03-14T10:28:45;3.33;;;2.20;;
31095;SDS011;17749;51.962;8.560;2023-03-14T10:31:06;3.22;;;2.67;;
31095;SDS011;17749;51.962;8.560;2023-03-14T10:33:34;3.17;;;2.85;;
31095;SDS011;17749;51.962;8.560;2023-03-14T10:38:32;5.47;;;4.35;;
31095;SDS011;17749;51.962;8.560;2023-03-14T10:41:01;4.32;;;3.40;;
31095;SDS011;17749;51.962;8.560;2023-03-14T10:43:33;8.85;;;4.88;;
31095;SDS011;17749;51.962;8.560;2023-03-14T10:46:18;4.32;;;2.65;;
31095;SDS011;17749;51.962;8.560;2023-03-14T10:49:05;1.45;;;1.17;;
31095;SDS011;17749;51.962;8.560;2023-03-14T10:51:33;0.75;;;0.55;;
31095;SDS011;17749;51.962;8.560;2023-03-14T10:54:01;1.10;;;0.60;;
31095;SDS011;17749;51.962;8.560;2023-03-14T10:56:35;1.45;;;0.60;;
31095;SDS011;17749;51.962;8.560;2023-03-14T10:59:04;4.03;;;1.25;;
31095;SDS011;17749;51.962;8.560;2023-03-14T11:04:31;1.42;;;0.98;;
31095;SDS011;17749;51.962;8.560;2023-03-14T11:07:24;1.23;;;0.85;;
31095;SDS011;17749;51.962;8.560;2023-03-14T11:12:53;2.67;;;0.90;;
31095;SDS011;17749;51.962;8.560;2023-03-14T11:26:46;0.90;;;0.43;;
31095;SDS011;17749;51.962;8.560;2023-03-14T11:29:21;1.48;;;0.55;;
31095;SDS011;17749;51.962;8.560;2023-03-14T11:31:55;1.75;;;0.45;;
31095;SDS011;17749;51.962;8.560;2023-03-14T11:37:07;0.50;;;0.30;;
31095;SDS011;17749;51.962;8.560;2023-03-14T11:39:47;0.85;;;0.50;;
31095;SDS011;17749;51.962;8.560;2023-03-14T11:42:32;1.75;;;1.10;;
31095;SDS011;17749;51.962;8.560;2023-03-14T11:44:59;1.70;;;0.43;;
31095;SDS011;17749;51.962;8.560;2023-03-14T11:47:32;0.45;;;0.20;;
31095;SDS011;17749;51.962;8.560;2023-03-14T11:52:53;1.05;;;0.50;;
31095;SDS011;17749;51.962;8.560;2023-03-14T11:55:27;0.47;;;0.40;;
31095;SDS011;17749;51.962;8.560;2023-03-14T12:00:48;2.05;;;0.60;;
31095;SDS011;17749;51.962;8.560;2023-03-14T12:03:23;0.95;;;0.47;;
31095;SDS011;17749;51.962;8.560;2023-03-14T12:06:22;0.63;;;0.38;;
31095;SDS011;17749;51.962;8.560;2023-03-14T12:09:01;1.20;;;0.50;;
31095;SDS011;17749;51.962;8.560;2023-03-14T12:14:03;2.45;;;0.50;;
31095;SDS011;17749;51.962;8.560;2023-03-14T12:16:43;3.40;;;0.80;;
31095;SDS011;17749;51.962;8.560;2023-03-14T12:21:49;7.13;;;1.00;;
31095;SDS011;17749;51.962;8.560;2023-03-14T12:24:23;2.25;;;0.90;;
31095;SDS011;17749;51.962;8.560;2023-03-14T12:26:59;6.20;;;1.55;;
31095;SDS011;17749;51.962;8.560;2023-03-14T12:39:37;4.75;;;1.42;;
31095;SDS011;17749;51.962;8.560;2023-03-14T12:48:09;5.78;;;1.50;;
31095;SDS011;17749;51.962;8.560;2023-03-14T12:50:55;7.13;;;1.30;;
31095;SDS011;17749;51.962;8.560;2023-03-14T13:01:32;5.63;;;2.40;;
31095;SDS011;17749;51.962;8.560;2023-03-14T13:04:09;4.70;;;1.35;;
31095;SDS011;17749;51.962;8.560;2023-03-14T13:12:09;4.40;;;1.70;;
31095;SDS011;17749;51.962;8.560;2023-03-14T13:14:43;6.75;;;1.63;;
31095;SDS011;17749;51.962;8.560;2023-03-14T13:17:12;6.45;;;1.23;;
31095;SDS011;17749;51.962;8.560;2023-03-14T13:20:05;4.13;;;1.52;;
31095;SDS011;17749;51.962;8.560;2023-03-14T13:22:39;4.15;;;1.98;;
31095;SDS011;17749;51.962;8.560;2023-03-14T13:25:13;7.80;;;2.67;;
31095;SDS011;17749;51.962;8.560;2023-03-14T13:27:40;7.43;;;1.90;;
31095;SDS011;17749;51.962;8.560;2023-03-14T13:30:15;8.45;;;2.13;;
31095;SDS011;17749;51.962;8.560;2023-03-14T13:32:45;7.57;;;2.00;;
31095;SDS011;17749;51.962;8.560;2023-03-14T13:35:14;12.93;;;4.10;;
31095;SDS011;17749;51.962;8.560;2023-03-14T13:37:46;12.68;;;3.42;;
31095;SDS011;17749;51.962;8.560;2023-03-14T13:40:19;9.93;;;2.67;;
31095;SDS011;17749;51.962;8.560;2023-03-14T13:42:58;25.33;;;5.68;;
31095;SDS011;17749;51.962;8.560;2023-03-14T13:45:31;15.23;;;4.82;;
31095;SDS011;17749;51.962;8.560;2023-03-14T13:47:58;30.63;;;10.77;;
31095;SDS011;17749;51.962;8.560;2023-03-14T13:50:24;21.98;;;7.65;;
31095;SDS011;17749;51.962;8.560;2023-03-14T13:52:55;16.50;;;6.38;;
31095;SDS011;17749;51.962;8.560;2023-03-14T13:55:23;14.82;;;4.75;;
31095;SDS011;17749;51.962;8.560;2023-03-14T13:57:51;25.90;;;4.45;;
31095;SDS011;17749;51.962;8.560;2023-03-14T14:02:53;17.65;;;3.83;;
31095;SDS011;17749;51.962;8.560;2023-03-14T14:05:22;12.97;;;3.07;;
31095;SDS011;17749;51.962;8.560;2023-03-14T14:07:52;16.90;;;3.80;;
31095;SDS011;17749;51.962;8.560;2023-03-14T14:10:19;14.25;;;3.03;;
31095;SDS011;17749;51.962;8.560;2023-03-14T14:12:52;21.25;;;3.72;;
31095;SDS011;17749;51.962;8.560;2023-03-14T14:15:26;20.23;;;4.15;;
31095;SDS011;17749;51.962;8.560;2023-03-14T14:18:01;17.40;;;2.97;;
31095;SDS011;17749;51.962;8.560;2023-03-14T14:20:33;16.30;;;3.33;;
31095;SDS011;17749;51.962;8.560;2023-03-14T14:23:04;23.13;;;3.13;;
31095;SDS011;17749;51.962;8.560;2023-03-14T14:25:34;17.73;;;3.13;;
31095;SDS011;17749;51.962;8.560;2023-03-14T14:28:14;18.27;;;4.53;;
31095;SDS011;17749;51.962;8.560;2023-03-14T14:30:44;13.38;;;3.65;;
31095;SDS011;17749;51.962;8.560;2023-03-14T14:33:12;18.55;;;4.85;;
31095;SDS011;17749;51.962;8.560;2023-03-14T14:35:55;18.58;;;5.50;;
31095;SDS011;17749;51.962;8.560;2023-03-14T14:38:23;13.95;;;4.63;;
31095;SDS011;17749;51.962;8.560;2023-03-14T14:40:52;12.75;;;2.72;;
31095;SDS011;17749;51.962;8.560;2023-03-14T14:43:26;13.10;;;2.92;;
31095;SDS011;17749;51.962;8.560;2023-03-14T14:45:55;14.35;;;3.28;;
31095;SDS011;17749;51.962;8.560;2023-03-14T14:48:25;15.02;;;3.13;;
31095;SDS011;17749;51.962;8.560;2023-03-14T14:53:27;17.73;;;3.03;;
31095;SDS011;17749;51.962;8.560;2023-03-14T14:56:25;10.82;;;2.60;;
31095;SDS011;17749;51.962;8.560;2023-03-14T14:59:00;14.65;;;3.08;;
31095;SDS011;17749;51.962;8.560;2023-03-14T15:01:33;8.65;;;2.53;;
31095;SDS011;17749;51.962;8.560;2023-03-14T15:04:03;11.70;;;2.72;;
31095;SDS011;17749;51.962;8.560;2023-03-14T15:06:36;12.23;;;1.85;;
31095;SDS011;17749;51.962;8.560;2023-03-14T15:09:04;15.43;;;3.17;;
31095;SDS011;17749;51.962;8.560;2023-03-14T15:11:32;7.13;;;2.17;;
31095;SDS011;17749;51.962;8.560;2023-03-14T15:13:59;13.50;;;2.05;;
31095;SDS011;17749;51.962;8.560;2023-03-14T15:16:28;6.65;;;2.90;;
31095;SDS011;17749;51.962;8.560;2023-03-14T15:18:58;13.75;;;3.08;;
31095;SDS011;17749;51.962;8.560;2023-03-14T15:21:32;7.75;;;2.22;;
31095;SDS011;17749;51.962;8.560;2023-03-14T15:23:59;18.33;;;2.35;;
31095;SDS011;17749;51.962;8.560;2023-03-14T15:26:27;13.93;;;2.60;;
31095;SDS011;17749;51.962;8.560;2023-03-14T15:28:54;8.98;;;2.00;;
31095;SDS011;17749;51.962;8.560;2023-03-14T15:31:21;10.10;;;1.73;;
31095;SDS011;17749;51.962;8.560;2023-03-14T15:33:49;13.73;;;2.15;;
31095;SDS011;17749;51.962;8.560;2023-03-14T15:36:23;11.05;;;2.65;;
31095;SDS011;17749;51.962;8.560;2023-03-14T15:38:52;12.02;;;2.03;;
31095;SDS011;17749;51.962;8.560;2023-03-14T15:41:20;10.88;;;3.13;;
31095;SDS011;17749;51.962;8.560;2023-03-14T15:43:47;12.48;;;2.08;;
31095;SDS011;17749;51.962;8.560;2023-03-14T15:46:15;8.23;;;2.00;;
31095;SDS011;17749;51.962;8.560;2023-03-14T15:48:47;8.38;;;2.20;;
31095;SDS011;17749;51.962;8.560;2023-03-14T15:51:15;11.77;;;1.92;;
31095;SDS011;17749;51.962;8.560;2023-03-14T15:53:43;8.25;;;1.70;;
31095;SDS011;17749;51.962;8.560;2023-03-14T15:56:14;9.18;;;1.48;;
31095;SDS011;17749;51.962;8.560;2023-03-14T15:58:43;7.20;;;1.75;;
31095;SDS011;17749;51.962;8.560;2023-03-14T16:01:13;7.35;;;1.73;;
31095;SDS011;17749;51.962;8.560;2023-03-14T16:06:10;6.75;;;1.50;;
31095;SDS011;17749;51.962;8.560;2023-03-14T16:08:38;7.55;;;1.67;;
31095;SDS011;17749;51.962;8.560;2023-03-14T16:11:05;11.52;;;2.17;;
31095;SDS011;17749;51.962;8.560;2023-03-14T16:13:32;9.10;;;1.83;;
31095;SDS011;17749;51.962;8.560;2023-03-14T16:16:00;7.68;;;1.85;;
31095;SDS011;17749;51.962;8.560;2023-03-14T16:18:29;7.18;;;2.35;;
31095;SDS011;17749;51.962;8.560;2023-03-14T16:21:11;8.52;;;3.30;;
31095;SDS011;17749;51.962;8.560;2023-03-14T16:23:40;8.93;;;2.45;;
31095;SDS011;17749;51.962;8.560;2023-03-14T16:26:08;8.93;;;2.22;;
31095;SDS011;17749;51.962;8.560;2023-03-14T16:28:37;12.85;;;2.78;;
31095;SDS011;17749;51.962;8.560;2023-03-14T16:31:09;4.97;;;1.85;;
31095;SDS011;17749;51.962;8.560;2023-03-14T16:33:37;10.05;;;2.53;;
31095;SDS011;17749;51.962;8.560;2023-03-14T16:36:06;9.77;;;2.35;;
31095;SDS011;17749;51.962;8.560;2023-03-14T16:38:35;7.32;;;2.10;;
31095;SDS011;17749;51.962;8.560;2023-03-14T16:41:08;9.30;;;2.40;;
31095;SDS011;17749;51.962;8.560;2023-03-14T16:43:38;11.07;;;2.40;;
31095;SDS011;17749;51.962;8.560;2023-03-14T16:46:13;6.00;;;1.65;;
31095;SDS011;17749;51.962;8.560;2023-03-14T16:51:12;7.57;;;1.90;;
31095;SDS011;17749;51.962;8.560;2023-03-14T16:53:41;7.18;;;1.92;;
31095;SDS011;17749;51.962;8.560;2023-03-14T16:56:09;6.80;;;2.10;;
31095;SDS011;17749;51.962;8.560;2023-03-14T16:58:36;7.43;;;1.80;;
31095;SDS011;17749;51.962;8.560;2023-03-14T17:01:04;5.25;;;1.88;;
31095;SDS011;17749;51.962;8.560;2023-03-14T17:03:39;13.00;;;3.38;;
31095;SDS011;17749;51.962;8.560;2023-03-14T17:06:12;6.63;;;1.80;;
31095;SDS011;17749;51.962;8.560;2023-03-14T17:08:40;9.13;;;2.33;;
31095;SDS011;17749;51.962;8.560;2023-03-14T17:11:07;10.27;;;2.25;;
31095;SDS011;17749;51.962;8.560;2023-03-14T17:13:35;14.63;;;3.67;;
31095;SDS011;17749;51.962;8.560;2023-03-14T17:16:03;5.40;;;2.28;;
31095;SDS011;17749;51.962;8.560;2023-03-14T17:18:30;7.15;;;2.13;;
31095;SDS011;17749;51.962;8.560;2023-03-14T17:20:58;12.57;;;3.47;;
31095;SDS011;17749;51.962;8.560;2023-03-14T17:23:26;25.33;;;10.57;;
31095;SDS011;17749;51.962;8.560;2023-03-14T17:25:55;15.13;;;4.43;;
31095;SDS011;17749;51.962;8.560;2023-03-14T17:28:23;16.40;;;6.18;;
31095;SDS011;17749;51.962;8.560;2023-03-14T17:31:04;14.00;;;4.50;;
31095;SDS011;17749;51.962;8.560;2023-03-14T17:33:38;11.60;;;3.28;;
31095;SDS011;17749;51.962;8.560;2023-03-14T17:36:05;11.70;;;3.15;;
31095;SDS011;17749;51.962;8.560;2023-03-14T17:38:33;16.08;;;4.35;;
31095;SDS011;17749;51.962;8.560;2023-03-14T17:41:02;13.35;;;3.50;;
31095;SDS011;17749;51.962;8.560;2023-03-14T17:43:29;6.10;;;3.13;;
31095;SDS011;17749;51.962;8.560;2023-03-14T17:46:01;8.43;;;3.38;;
31095;SDS011;17749;51.962;8.560;2023-03-14T17:51:04;10.50;;;4.00;;
31095;SDS011;17749;51.962;8.560;2023-03-14T17:53:31;13.20;;;4.47;;
31095;SDS011;17749;51.962;8.560;2023-03-14T17:55:58;11.73;;;6.57;;
31095;SDS011;17749;51.962;8.560;2023-03-14T17:58:26;9.00;;;3.33;;
31095;SDS011;17749;51.962;8.560;2023-03-14T18:00:54;12.60;;;4.70;;
31095;SDS011;17749;51.962;8.560;2023-03-14T18:03:22;8.47;;;3.13;;
31095;SDS011;17749;51.962;8.560;2023-03-14T18:05:49;14.38;;;3.78;;
31095;SDS011;17749;51.962;8.560;2023-03-14T18:08:19;9.52;;;2.70;;
31095;SDS011;17749;51.962;8.560;2023-03-14T18:10:46;6.13;;;2.58;;
31095;SDS011;17749;51.962;8.560;2023-03-14T18:13:12;9.13;;;2.85;;
31095;SDS011;17749;51.962;8.560;2023-03-14T18:15:39;7.70;;;3.22;;
31095;SDS011;17749;51.962;8.560;2023-03-14T18:18:06;11.32;;;2.85;;
31095;SDS011;17749;51.962;8.560;2023-03-14T18:20:33;8.85;;;2.70;;
31095;SDS011;17749;51.962;8.560;2023-03-14T18:23:00;7.85;;;3.30;;
31095;SDS011;17749;51.962;8.560;2023-03-14T18:25:28;7.88;;;3.42;;
31095;SDS011;17749;51.962;8.560;2023-03-14T18:27:54;7.22;;;2.83;;
31095;SDS011;17749;51.962;8.560;2023-03-14T18:30:21;8.85;;;4.40;;
31095;SDS011;17749;51.962;8.560;2023-03-14T18:32:48;11.38;;;3.55;;
31095;SDS011;17749;51.962;8.560;2023-03-14T18:35:16;6.72;;;2.55;;
31095;SDS011;17749;51.962;8.560;2023-03-14T18:37:43;8.05;;;2.10;;
31095;SDS011;17749;51.962;8.560;2023-03-14T18:40:11;9.75;;;2.50;;
31095;SDS011;17749;51.962;8.560;2023-03-14T18:42:42;8.43;;;4.68;;
31095;SDS011;17749;51.962;8.560;2023-03-14T18:45:09;9.43;;;4.10;;
31095;SDS011;17749;51.962;8.560;2023-03-14T18:47:36;12.15;;;3.40;;
31095;SDS011;17749;51.962;8.560;2023-03-14T18:50:04;12.45;;;3.85;;
31095;SDS011;17749;51.962;8.560;2023-03-14T18:52:31;12.73;;;3.53;;
31095;SDS011;17749;51.962;8.560;2023-03-14T18:54:58;14.60;;;3.63;;
31095;SDS011;17749;51.962;8.560;2023-03-14T18:57:25;4.75;;;2.08;;
31095;SDS011;17749;51.962;8.560;2023-03-14T18:59:52;7.07;;;2.58;;
31095;SDS011;17749;51.962;8.560;2023-03-14T19:02:22;6.97;;;2.33;;
31095;SDS011;17749;51.962;8.560;2023-03-14T19:04:51;6.20;;;2.47;;
31095;SDS011;17749;51.962;8.560;2023-03-14T19:07:18;8.30;;;2.00;;
31095;SDS011;17749;51.962;8.560;2023-03-14T19:09:45;11.15;;;2.75;;
31095;SDS011;17749;51.962;8.560;2023-03-14T19:12:12;8.40;;;2.58;;
31095;SDS011;17749;51.962;8.560;2023-03-14T19:14:39;8.05;;;3.15;;
31095;SDS011;17749;51.962;8.560;2023-03-14T19:17:06;9.35;;;3.55;;
31095;SDS011;17749;51.962;8.560;2023-03-14T19:19:33;8.50;;;2.95;;
31095;SDS011;17749;51.962;8.560;2023-03-14T19:22:00;9.98;;;2.72;;
31095;SDS011;17749;51.962;8.560;2023-03-14T19:24:27;9.68;;;3.47;;
31095;SDS011;17749;51.962;8.560;2023-03-14T19:26:54;8.15;;;4.10;;
31095;SDS011;17749;51.962;8.560;2023-03-14T19:29:21;9.55;;;5.00;;
31095;SDS011;17749;51.962;8.560;2023-03-14T19:31:48;10.85;;;4.72;;
31095;SDS011;17749;51.962;8.560;2023-03-14T19:36:44;8.70;;;2.75;;
31095;SDS011;17749;51.962;8.560;2023-03-14T19:39:11;10.93;;;3.20;;
31095;SDS011;17749;51.962;8.560;2023-03-14T19:41:38;8.93;;;3.67;;
31095;SDS011;17749;51.962;8.560;2023-03-14T19:44:05;10.75;;;3.33;;
31095;SDS011;17749;51.962;8.560;2023-03-14T19:46:32;8.30;;;2.53;;
31095;SDS011;17749;51.962;8.560;2023-03-14T19:49:01;5.32;;;2.72;;
31095;SDS011;17749;51.962;8.560;2023-03-14T19:51:28;8.50;;;2.60;;
31095;SDS011;17749;51.962;8.560;2023-03-14T19:53:56;12.18;;;2.80;;
31095;SDS011;17749;51.962;8.560;2023-03-14T19:56:27;5.20;;;2.35;;
31095;SDS011;17749;51.962;8.560;2023-03-14T19:58:54;8.13;;;2.60;;
31095;SDS011;17749;51.962;8.560;2023-03-14T20:01:21;9.13;;;3.45;;
31095;SDS011;17749;51.962;8.560;2023-03-14T20:03:50;11.60;;;4.50;;
31095;SDS011;17749;51.962;8.560;2023-03-14T20:06:17;9.80;;;4.30;;
31095;SDS011;17749;51.962;8.560;2023-03-14T20:08:44;11.68;;;4.57;;
31095;SDS011;17749;51.962;8.560;2023-03-14T20:11:11;7.40;;;4.18;;
31095;SDS011;17749;51.962;8.560;2023-03-14T20:13:38;9.60;;;3.78;;
31095;SDS011;17749;51.962;8.560;2023-03-14T20:16:06;13.15;;;4.78;;
31095;SDS011;17749;51.962;8.560;2023-03-14T20:18:36;7.63;;;3.83;;
31095;SDS011;17749;51.962;8.560;2023-03-14T20:21:06;12.15;;;5.45;;
31095;SDS011;17749;51.962;8.560;2023-03-14T20:23:34;12.95;;;6.10;;
31095;SDS011;17749;51.962;8.560;2023-03-14T20:26:01;10.10;;;5.38;;
31095;SDS011;17749;51.962;8.560;2023-03-14T20:28:28;11.68;;;6.50;;
31095;SDS011;17749;51.962;8.560;2023-03-14T20:30:55;9.63;;;5.53;;
31095;SDS011;17749;51.962;8.560;2023-03-14T20:33:22;8.07;;;4.10;;
31095;SDS011;17749;51.962;8.560;2023-03-14T20:35:57;8.95;;;3.95;;
31095;SDS011;17749;51.962;8.560;2023-03-14T20:38:25;10.15;;;3.33;;
31095;SDS011;17749;51.962;8.560;2023-03-14T20:40:56;11.15;;;3.15;;
31095;SDS011;17749;51.962;8.560;2023-03-14T20:43:25;11.82;;;3.40;;
31095;SDS011;17749;51.962;8.560;2023-03-14T20:45:53;13.35;;;3.58;;
31095;SDS011;17749;51.962;8.560;2023-03-14T20:48:21;7.25;;;3.15;;
31095;SDS011;17749;51.962;8.560;2023-03-14T20:50:49;10.32;;;3.83;;
31095;SDS011;17749;51.962;8.560;2023-03-14T20:53:16;8.95;;;3.75;;
31095;SDS011;17749;51.962;8.560;2023-03-14T20:55:44;4.63;;;2.58;;
31095;SDS011;17749;51.962;8.560;2023-03-14T20:58:11;11.57;;;3.55;;
31095;SDS011;17749;51.962;8.560;2023-03-14T21:00:39;10.80;;;2.78;;
31095;SDS011;17749;51.962;8.560;2023-03-14T21:03:16;9.55;;;2.85;;
31095;SDS011;17749;51.962;8.560;2023-03-14T21:05:44;7.60;;;2.40;;
31095;SDS011;17749;51.962;8.560;2023-03-14T21:08:13;7.25;;;3.08;;
31095;SDS011;17749;51.962;8.560;2023-03-14T21:10:40;5.72;;;2.42;;
31095;SDS011;17749;51.962;8.560;2023-03-14T21:13:07;12.93;;;3.20;;
31095;SDS011;17749;51.962;8.560;2023-03-14T21:15:37;8.30;;;2.67;;
31095;SDS011;17749;51.962;8.560;2023-03-14T21:18:04;9.70;;;2.65;;
31095;SDS011;17749;51.962;8.560;2023-03-14T21:20:32;6.22;;;3.03;;
31095;SDS011;17749;51.962;8.560;2023-03-14T21:23:03;12.82;;;3.72;;
31095;SDS011;17749;51.962;8.560;2023-03-14T21:25:31;10.32;;;3.63;;
31095;SDS011;17749;51.962;8.560;2023-03-14T21:28:00;6.53;;;3.28;;
